sensor_id;sensor_type;location;lat;lon;timestamp;pressure;altitude;pressure_sealevel;temperature;humidity
55014;BME280;40916;51.632;5.552;2023-02-03T00:00:57;1020.5875430615885;;;8.353107611628552;0
55014;BME280;40916;51.632;5.552;2023-02-03T00:01:57;1020.6591586216315;;;8.360066667563217;0
55014;BME280;40916;51.632;5.552;2023-02-03T00:02:57;1020.6465339069928;;;8.36702524547001;0
55014;BME280;40916;51.632;5.552;2023-02-03T00:03:58;1020.6278307857551;;;8.353107611628552;0
55014;BME280;40916;51.632;5.552;2023-02-03T00:04:58;1020.6579050518116;;;8.38094096782326;0
55014;BME280;40916;51.632;5.552;2023-02-03T00:05:58;1020.6029638946525;;;8.38094096782326;0
55014;BME280;40916;51.632;5.552;2023-02-03T00:06:58;1020.606244951274;;;8.36702524547001;0
55014;BME280;40916;51.632;5.552;2023-02-03T00:07:58;1020.5492813432296;;;8.360066667563217;0
55014;BME280;40916;51.632;5.552;2023-02-03T00:08:58;1020.5802180223666;;;8.353107611628552;0
55014;BME280;40916;51.632;5.552;2023-02-03T00:09:58;1020.6001644677333;;;8.346148077510108;0
55014;BME280;40916;51.632;5.552;2023-02-03T00:10:58;1020.6261954269474;;;8.360066667563217;0
55014;BME280;40916;51.632;5.552;2023-02-03T00:11:58;1020.5598773658982;;;8.346148077510108;0
55014;BME280;40916;51.632;5.552;2023-02-03T00:12:58;1020.5859070908838;;;8.360066667563217;0
55014;BME280;40916;51.632;5.552;2023-02-03T00:13:58;1020.6505795626545;;;8.38094096782326;0
55014;BME280;40916;51.632;5.552;2023-02-03T00:14:58;1020.6139521239579;;;8.38094096782326;0
55014;BME280;40916;51.632;5.552;2023-02-03T00:15:58;1020.6782392281939;;;8.38789811258119;0
55014;BME280;40916;51.632;5.552;2023-02-03T00:16:59;1020.7425264176153;;;8.394854779934192;0
55014;BME280;40916;51.632;5.552;2023-02-03T00:17:59;1020.6139521239579;;;8.38094096782326;0
55014;BME280;40916;51.632;5.552;2023-02-03T00:18:59;1020.5903320377793;;;8.38789811258119;0
55014;BME280;40916;51.632;5.552;2023-02-03T00:19:59;1020.7465599981189;;;8.408766683047613;0
55014;BME280;40916;51.632;5.552;2023-02-03T00:20:59;1020.7762277832688;;;8.422676678407246;0
55014;BME280;40916;51.632;5.552;2023-02-03T00:21:59;1020.8181715382411;;;8.415721919118962;0
55014;BME280;40916;51.632;5.552;2023-02-03T00:23:03;1020.7449109986624;;;8.415721919118962;0
55014;BME280;40916;51.632;5.552;2023-02-03T00:23:59;1020.7952495870187;;;8.450490950834649;0
55014;BME280;40916;51.632;5.552;2023-02-03T00:24:59;1020.7699474928187;;;8.464395230384472;0
55014;BME280;40916;51.632;5.552;2023-02-03T00:26:05;1020.7219834980897;;;8.450490950834649;0
55014;BME280;40916;51.632;5.552;2023-02-03T00:26:59;1020.870860688636;;;8.471346656535832;0
55014;BME280;40916;51.632;5.552;2023-02-03T00:28:00;1020.8985044864892;;;8.478297607144619;0
55014;BME280;40916;51.632;5.552;2023-02-03T00:29:00;1020.9887569686344;;;8.49914760726276;0
55014;BME280;40916;51.632;5.552;2023-02-03T00:30:00;1020.8971644751978;;;8.49914760726276;0
55014;BME280;40916;51.632;5.552;2023-02-03T00:31:00;1021.0386980938296;;;8.519993333064988;0
55014;BME280;40916;51.632;5.552;2023-02-03T00:32:00;1021.0719852364035;;;8.533888111039047;0
55014;BME280;40916;51.632;5.552;2023-02-03T00:33:00;1020.9634314398414;;;8.513045232464087;0
55014;BME280;40916;51.632;5.552;2023-02-03T00:34:00;1021.0170255212172;;;8.533888111039047;0
55014;BME280;40916;51.632;5.552;2023-02-03T00:35:00;1020.8848156733842;;;8.519993333064988;0
55014;BME280;40916;51.632;5.552;2023-02-03T00:36:03;1021.0136645134368;;;8.54778099240438;0
55014;BME280;40916;51.632;5.552;2023-02-03T00:37:01;1021.0359451461835;;;8.561671978393957;0
55014;BME280;40916;51.632;5.552;2023-02-03T00:38:01;1021.002967323318;;;8.561671978393957;0
55014;BME280;40916;51.632;5.552;2023-02-03T00:39:01;1020.9919747178243;;;8.561671978393957;0
55014;BME280;40916;51.632;5.552;2023-02-03T00:40:01;1020.9277057492287;;;8.55472672224412;0
55014;BME280;40916;51.632;5.552;2023-02-03T00:41:01;1020.9792943606946;;;8.568616761007853;0
55014;BME280;40916;51.632;5.552;2023-02-03T00:42:02;1021.0398979917443;;;8.57556107023969;0
55014;BME280;40916;51.632;5.552;2023-02-03T00:43:01;1020.9336329253829;;;8.57556107023969;0
55014;BME280;40916;51.632;5.552;2023-02-03T00:44:01;1020.9299686145234;;;8.57556107023969;0
55014;BME280;40916;51.632;5.552;2023-02-03T00:45:01;1020.9525037901368;;;8.603333576421914;0
55014;BME280;40916;51.632;5.552;2023-02-03T00:46:01;1021.007471810151;;;8.603333576421914;0
55014;BME280;40916;51.632;5.552;2023-02-03T00:47:02;1020.9708264605183;;;8.603333576421914;0
55014;BME280;40916;51.632;5.552;2023-02-03T00:48:02;1020.9820842945587;;;8.61721699321689;0
55014;BME280;40916;51.632;5.552;2023-02-03T00:49:02;1020.9048648609808;;;8.603333576421914;0
55014;BME280;40916;51.632;5.552;2023-02-03T00:50:02;1021.0240959178318;;;8.610275521049463;0
55014;BME280;40916;51.632;5.552;2023-02-03T00:51:02;1020.976456236431;;;8.610275521049463;0
55014;BME280;40916;51.632;5.552;2023-02-03T00:52:02;1020.9158584582428;;;8.603333576421914;0
55014;BME280;40916;51.632;5.552;2023-02-03T00:53:02;1020.9674257121405;;;8.61721699321689;0
55014;BME280;40916;51.632;5.552;2023-02-03T00:54:02;1020.9713467176077;;;8.631098520784985;0
55014;BME280;40916;51.632;5.552;2023-02-03T00:55:03;1020.9473989252311;;;8.62415799307761;0
55014;BME280;40916;51.632;5.552;2023-02-03T00:56:03;1021.0553772350331;;;8.61721699321689;0
55014;BME280;40916;51.632;5.552;2023-02-03T00:57:03;1021.0737004775433;;;8.61721699321689;0
55014;BME280;40916;51.632;5.552;2023-02-03T00:58:03;1021.0610046904109;;;8.62415799307761;0
55014;BME280;40916;51.632;5.552;2023-02-03T00:59:03;1021.1069427922661;;;8.631098520784985;0
55014;BME280;40916;51.632;5.552;2023-02-03T01:00:03;1021.0829929161542;;;8.62415799307761;0
55014;BME280;40916;51.632;5.552;2023-02-03T01:01:03;1021.1252665985572;;;8.631098520784985;0
55014;BME280;40916;51.632;5.552;2023-02-03T01:02:03;1021.0575951901593;;;8.638038576492303;0
55014;BME280;40916;51.632;5.552;2023-02-03T01:03:03;1021.0593009097463;;;8.631098520784985;0
55014;BME280;40916;51.632;5.552;2023-02-03T01:04:03;1021.1384712624371;;;8.65191727251959;0
55014;BME280;40916;51.632;5.552;2023-02-03T01:05:04;1021.1401795824462;;;8.644978160352785;0
55014;BME280;40916;51.632;5.552;2023-02-03T01:06:07;1021.1914878176268;;;8.644978160352785;0
55014;BME280;40916;51.632;5.552;2023-02-03T01:07:04;1021.2132209099142;;;8.631098520784985;0
55014;BME280;40916;51.632;5.552;2023-02-03T01:08:04;1021.2410893093897;;;8.65191727251959;0
55014;BME280;40916;51.632;5.552;2023-02-03T01:09:04;1021.1770758367362;;;8.65885591314581;0
55014;BME280;40916;51.632;5.552;2023-02-03T01:10:04;1021.2212969929882;;;8.672731780388524;0
55014;BME280;40916;51.632;5.552;2023-02-03T01:11:05;1021.2655133084244;;;8.686605763304325;0
55014;BME280;40916;51.632;5.552;2023-02-03T01:12:04;1021.1262354020236;;;8.686605763304325;0
55014;BME280;40916;51.632;5.552;2023-02-03T01:13:04;1021.2437489957192;;;8.700477863115552;0
55014;BME280;40916;51.632;5.552;2023-02-03T01:15:05;1021.1812135025644;;;8.686605763304325;0
55014;BME280;40916;51.632;5.552;2023-02-03T01:16:06;1021.1628874660933;;;8.686605763304325;0
55014;BME280;40916;51.632;5.552;2023-02-03T01:17:05;1021.2564648905421;;;8.693542048521653;0
55014;BME280;40916;51.632;5.552;2023-02-03T01:18:05;1021.2491343597144;;;8.693542048521653;0
55014;BME280;40916;51.632;5.552;2023-02-03T01:19:05;1021.2183104083622;;;8.714348081043497;0
55014;BME280;40916;51.632;5.552;2023-02-03T01:20:05;1021.1577233439383;;;8.707413207238645;0
55014;BME280;40916;51.632;5.552;2023-02-03T01:21:05;1021.0678137416936;;;8.700477863115552;0
55014;BME280;40916;51.632;5.552;2023-02-03T01:22:05;1021.0128340307109;;;8.700477863115552;0
55014;BME280;40916;51.632;5.552;2023-02-03T01:23:05;1020.913653663708;;;8.686605763304325;0
55014;BME280;40916;51.632;5.552;2023-02-03T01:24:05;1020.9906228678279;;;8.686605763304325;0
55014;BME280;40916;51.632;5.552;2023-02-03T01:25:06;1020.880666877913;;;8.686605763304325;0
55014;BME280;40916;51.632;5.552;2023-02-03T01:26:06;1021.0050564259174;;;8.672731780388524;0
55014;BME280;40916;51.632;5.552;2023-02-03T01:27:06;1021.0216641502311;;;8.679669007310867;0
55014;BME280;40916;51.632;5.552;2023-02-03T01:28:06;1020.9539708593595;;;8.686605763304325;0
55014;BME280;40916;51.632;5.552;2023-02-03T01:29:06;1020.9319796599569;;;8.686605763304325;0
55014;BME280;40916;51.632;5.552;2023-02-03T01:30:06;1020.9360725859775;;;8.714348081043497;0
55014;BME280;40916;51.632;5.552;2023-02-03T01:31:08;1020.9088817549148;;;8.73514988207322;0
55014;BME280;40916;51.632;5.552;2023-02-03T01:32:06;1020.9968558846654;;;8.73514988207322;0
55014;BME280;40916;51.632;5.552;2023-02-03T01:33:06;1020.9470688516387;;;8.714348081043497;0
55014;BME280;40916;51.632;5.552;2023-02-03T01:34:07;1020.9800576550117;;;8.714348081043497;0
55014;BME280;40916;51.632;5.552;2023-02-03T01:35:07;1020.9177454789084;;;8.714348081043497;0
55014;BME280;40916;51.632;5.552;2023-02-03T01:36:07;1020.9160146992535;;;8.7212824846826;0
55014;BME280;40916;51.632;5.552;2023-02-03T01:37:07;1020.9434034296335;;;8.714348081043497;0
55014;BME280;40916;51.632;5.552;2023-02-03T01:38:07;1020.9563349485888;;;8.7212824846826;0
55014;BME280;40916;51.632;5.552;2023-02-03T01:39:08;1020.8498323989946;;;8.707413207238645;0
55014;BME280;40916;51.632;5.552;2023-02-03T01:40:08;1021.0828965841482;;;8.728216418308389;0
55014;BME280;40916;51.632;5.552;2023-02-03T01:41:09;1021.0809612643203;;;8.7212824846826;0
55014;BME280;40916;51.632;5.552;2023-02-03T01:42:08;1021.0716932702198;;;8.714348081043497;0
55014;BME280;40916;51.632;5.552;2023-02-03T01:43:08;1021.0352446073699;;;8.728216418308389;0
55014;BME280;40916;51.632;5.552;2023-02-03T01:44:34;1021.101016682704;;;8.714348081043497;0
55014;BME280;40916;51.632;5.552;2023-02-03T01:45:08;1021.0020501959176;;;8.714348081043497;0
55014;BME280;40916;51.632;5.552;2023-02-03T01:46:14;1021.0164993439483;;;8.700477863115552;0
55014;BME280;40916;51.632;5.552;2023-02-03T01:47:10;1020.880666877913;;;8.686605763304325;0
55014;BME280;40916;51.632;5.552;2023-02-03T01:48:08;1020.9485830032181;;;8.693542048521653;0
55014;BME280;40916;51.632;5.552;2023-02-03T01:49:09;1020.9451318879848;;;8.707413207238645;0
55014;BME280;40916;51.632;5.552;2023-02-03T01:50:10;1020.8810912736438;;;8.714348081043497;0
55014;BME280;40916;51.632;5.552;2023-02-03T01:51:09;1020.8830254149916;;;8.7212824846826;0
55014;BME280;40916;51.632;5.552;2023-02-03T01:52:09;1020.8133814019113;;;8.7212824846826;0
55014;BME280;40916;51.632;5.552;2023-02-03T01:53:09;1020.800650551699;;;8.728216418308389;0
55014;BME280;40916;51.632;5.552;2023-02-03T01:54:10;1020.8687495841048;;;8.749015400629151;0
55014;BME280;40916;51.632;5.552;2023-02-03T01:55:11;1020.8301666513975;;;8.742082876129398;0
55014;BME280;40916;51.632;5.552;2023-02-03T01:56:09;1020.7605195076684;;;8.742082876129398;0
55014;BME280;40916;51.632;5.552;2023-02-03T01:57:10;1020.7971758937799;;;8.742082876129398;0
55014;BME280;40916;51.632;5.552;2023-02-03T01:58:10;1020.6835411353502;;;8.742082876129398;0
55014;BME280;40916;51.632;5.552;2023-02-03T01:59:09;1020.7346710608633;;;8.728216418308389;0
55014;BME280;40916;51.632;5.552;2023-02-03T02:00:10;1020.7294531835855;;;8.749015400629151;0
55014;BME280;40916;51.632;5.552;2023-02-03T02:01:10;1020.7130470384425;;;8.755947455724652;0
55014;BME280;40916;51.632;5.552;2023-02-03T02:02:10;1020.5959129458943;;;8.769810158311216;0
55014;BME280;40916;51.632;5.552;2023-02-03T02:03:10;1020.4749398076391;;;8.769810158311216;0
55014;BME280;40916;51.632;5.552;2023-02-03T02:04:10;1020.340890443148;;;8.749015400629151;0
55014;BME280;40916;51.632;5.552;2023-02-03T02:05:11;1020.465693205038;;;8.762879041567995;0
55014;BME280;40916;51.632;5.552;2023-02-03T02:06:11;1020.4896032114729;;;8.769810158311216;0
55014;BME280;40916;51.632;5.552;2023-02-03T02:07:10;1020.5484176740867;;;8.783670985105111;0
55014;BME280;40916;51.632;5.552;2023-02-03T02:08:11;1020.4766905904149;;;8.762879041567995;0
55014;BME280;40916;51.632;5.552;2023-02-03T02:09:10;1020.3866250452273;;;8.742082876129398;0
55014;BME280;40916;51.632;5.552;2023-02-03T02:10:11;1020.4822715093193;;;8.769810158311216;0
55014;BME280;40916;51.632;5.552;2023-02-03T02:11:11;1020.4016228168731;;;8.769810158311216;0
55014;BME280;40916;51.632;5.552;2023-02-03T02:12:11;1020.4401939453988;;;8.77674080610629;0
55014;BME280;40916;51.632;5.552;2023-02-03T02:13:11;1020.5262617293411;;;8.769810158311216;0
55014;BME280;40916;51.632;5.552;2023-02-03T02:14:11;1020.5300878553975;;;8.783670985105111;0
55014;BME280;40916;51.632;5.552;2023-02-03T02:15:11;1020.4695211897593;;;8.77674080610629;0
55014;BME280;40916;51.632;5.552;2023-02-03T02:16:13;1020.466009870122;;;8.790600695459528;0
55014;BME280;40916;51.632;5.552;2023-02-03T02:17:13;1020.5595692369475;;;8.797529937321304;0
55014;BME280;40916;51.632;5.552;2023-02-03T02:18:18;1020.5120550088252;;;8.811387016173715;0
55014;BME280;40916;51.632;5.552;2023-02-03T02:19:18;1020.5394795466038;;;8.804458710842155;0
55014;BME280;40916;51.632;5.552;2023-02-03T02:20:18;1020.5927111008344;;;8.811387016173715;0
55014;BME280;40916;51.632;5.552;2023-02-03T02:21:38;1020.6037096632743;;;8.811387016173715;0
55014;BME280;40916;51.632;5.552;2023-02-03T02:22:12;1020.5523830476687;;;8.811387016173715;0
55014;BME280;40916;51.632;5.552;2023-02-03T02:24:53;1020.5598541192785;;;8.825242222875211;0
55014;BME280;40916;51.632;5.552;2023-02-03T02:25:14;1020.6315442048127;;;8.846021525295072;0
55014;BME280;40916;51.632;5.552;2023-02-03T02:26:35;1020.5708530112323;;;8.825242222875211;0
55014;BME280;40916;51.632;5.552;2023-02-03T02:27:17;1020.5470884304405;;;8.832169124548102;0
55014;BME280;40916;51.632;5.552;2023-02-03T02:28:17;1020.5601090819727;;;8.852947024671717;0
55014;BME280;40916;51.632;5.552;2023-02-03T02:30:17;1020.4755293163588;;;8.825242222875211;0
55014;BME280;40916;51.632;5.552;2023-02-03T02:30:21;1020.5434220783271;;;8.832169124548102;0
55014;BME280;40916;51.632;5.552;2023-02-03T02:31:19;1020.5267197485657;;;8.811387016173715;0
55014;BME280;40916;51.632;5.552;2023-02-03T02:32:16;1020.567186713796;;;8.825242222875211;0
55014;BME280;40916;51.632;5.552;2023-02-03T02:33:15;1020.5928507983363;;;8.825242222875211;0
55014;BME280;40916;51.632;5.552;2023-02-03T02:34:13;1020.5157211935829;;;8.811387016173715;0
55014;BME280;40916;51.632;5.552;2023-02-03T02:35:15;1020.567186713796;;;8.825242222875211;0
55014;BME280;40916;51.632;5.552;2023-02-03T02:36:16;1020.5633816062027;;;8.811387016173715;0
55014;BME280;40916;51.632;5.552;2023-02-03T02:37:16;1020.5248150270336;;;8.804458710842155;0
55014;BME280;40916;51.632;5.552;2023-02-03T02:38:15;1020.6386099285149;;;8.818314853467562;0
55014;BME280;40916;51.632;5.552;2023-02-03T02:39:15;1020.6623686809455;;;8.811387016173715;0
55014;BME280;40916;51.632;5.552;2023-02-03T02:40:16;1020.4313989741047;;;8.811387016173715;0
55014;BME280;40916;51.632;5.552;2023-02-03T02:41:15;1020.579950035899;;;8.818314853467562;0
55014;BME280;40916;51.632;5.552;2023-02-03T02:42:14;1020.5231911537932;;;8.825242222875211;0
55014;BME280;40916;51.632;5.552;2023-02-03T02:43:16;1020.5085259709134;;;8.825242222875211;0
55014;BME280;40916;51.632;5.552;2023-02-03T02:44:15;1020.6113150627594;;;8.83909555863762;0
55014;BME280;40916;51.632;5.552;2023-02-03T02:45:15;1020.5561878221973;;;8.825242222875211;0
55014;BME280;40916;51.632;5.552;2023-02-03T02:46:15;1020.6130827887218;;;8.832169124548102;0
55014;BME280;40916;51.632;5.552;2023-02-03T02:47:15;1020.490194494977;;;8.825242222875211;0
55014;BME280;40916;51.632;5.552;2023-02-03T02:48:16;1020.5195248578956;;;8.825242222875211;0
55014;BME280;40916;51.632;5.552;2023-02-03T02:49:15;1020.5049892316143;;;8.83909555863762;0
55014;BME280;40916;51.632;5.552;2023-02-03T02:50:15;1020.5214239681331;;;8.832169124548102;0
55014;BME280;40916;51.632;5.552;2023-02-03T02:51:15;1020.4206619190833;;;8.83909555863762;0
55014;BME280;40916;51.632;5.552;2023-02-03T02:52:15;1020.449865258334;;;8.825242222875211;0
55014;BME280;40916;51.632;5.552;2023-02-03T02:53:15;1020.5101505093571;;;8.804458710842155;0
55014;BME280;40916;51.632;5.552;2023-02-03T02:54:16;1020.4937240868128;;;8.811387016173715;0
55014;BME280;40916;51.632;5.552;2023-02-03T02:55:16;1020.5047226396651;;;8.811387016173715;0
55014;BME280;40916;51.632;5.552;2023-02-03T02:56:15;1020.4920931611705;;;8.832169124548102;0
55014;BME280;40916;51.632;5.552;2023-02-03T02:57:16;1020.5415226350561;;;8.825242222875211;0
55014;BME280;40916;51.632;5.552;2023-02-03T02:58:16;1020.5561878221973;;;8.825242222875211;0
55014;BME280;40916;51.632;5.552;2023-02-03T02:59:16;1020.5010564552626;;;8.811387016173715;0
55014;BME280;40916;51.632;5.552;2023-02-03T03:00:16;1020.4514924575889;;;8.804458710842155;0
55014;BME280;40916;51.632;5.552;2023-02-03T03:01:16;1020.5010564552626;;;8.811387016173715;0
55014;BME280;40916;51.632;5.552;2023-02-03T03:02:16;1020.546953859619;;;8.818314853467562;0
55014;BME280;40916;51.632;5.552;2023-02-03T03:03:17;1020.5632353123267;;;8.797529937321304;0
55014;BME280;40916;51.632;5.552;2023-02-03T03:04:17;1020.6054699081059;;;8.804458710842155;0
55014;BME280;40916;51.632;5.552;2023-02-03T03:05:16;1020.7613558419768;;;8.811387016173715;0
55014;BME280;40916;51.632;5.552;2023-02-03T03:06:17;1020.7575374767904;;;8.797529937321304;0
55014;BME280;40916;51.632;5.552;2023-02-03T03:07:17;1020.6916982011442;;;8.811387016173715;0
55014;BME280;40916;51.632;5.552;2023-02-03T03:08:17;1020.6732176287368;;;8.797529937321304;0
55014;BME280;40916;51.632;5.552;2023-02-03T03:09:17;1020.6108943030259;;;8.797529937321304;0
55014;BME280;40916;51.632;5.552;2023-02-03T03:10:17;1020.5979865529862;;;8.790600695459528;0
55014;BME280;40916;51.632;5.552;2023-02-03T03:11:17;1020.5963772881961;;;8.811387016173715;0
55014;BME280;40916;51.632;5.552;2023-02-03T03:12:18;1020.5192424155888;;;8.797529937321304;0
55014;BME280;40916;51.632;5.552;2023-02-03T03:13:19;1020.4972459736113;;;8.797529937321304;0
55014;BME280;40916;51.632;5.552;2023-02-03T03:14:18;1020.4478263303592;;;8.804458710842155;0
55014;BME280;40916;51.632;5.552;2023-02-03T03:15:18;1020.609136040425;;;8.804458710842155;0
55014;BME280;40916;51.632;5.552;2023-02-03T03:16:19;1020.4604345713624;;;8.783670985105111;0
55014;BME280;40916;51.632;5.552;2023-02-03T03:17:19;1020.284468570424;;;8.783670985105111;0
55014;BME280;40916;51.632;5.552;2023-02-03T03:18:18;1020.3781699354886;;;8.804458710842155;0
55014;BME280;40916;51.632;5.552;2023-02-03T03:19:19;1020.3250797431405;;;8.811387016173715;0
55014;BME280;40916;51.632;5.552;2023-02-03T03:20:19;1020.1819641068231;;;8.797529937321304;0
55014;BME280;40916;51.632;5.552;2023-02-03T03:21:19;1020.2203870076179;;;8.790600695459528;0
55014;BME280;40916;51.632;5.552;2023-02-03T03:22:19;1020.0499859108724;;;8.797529937321304;0
55014;BME280;40916;51.632;5.552;2023-02-03T03:23:19;1019.9564346729928;;;8.790600695459528;0
55014;BME280;40916;51.632;5.552;2023-02-03T03:24:19;1020.137971357796;;;8.797529937321304;0
55014;BME280;40916;51.632;5.552;2023-02-03T03:25:20;1020.2095283143309;;;8.804458710842155;0
55014;BME280;40916;51.632;5.552;2023-02-03T03:26:20;1020.1234400957698;;;8.811387016173715;0
55014;BME280;40916;51.632;5.552;2023-02-03T03:27:21;1020.1546667206642;;;8.818314853467562;0
55014;BME280;40916;51.632;5.552;2023-02-03T03:28:20;1020.178559856834;;;8.825242222875211;0
55014;BME280;40916;51.632;5.552;2023-02-03T03:29:20;1020.0981286396858;;;8.852947024671717;0
55014;BME280;40916;51.632;5.552;2023-02-03T03:30:21;1020.1531262128299;;;8.852947024671717;0
55014;BME280;40916;51.632;5.552;2023-02-03T03:31:19;1020.0763254248731;;;8.880644352392874;0
55014;BME280;40916;51.632;5.552;2023-02-03T03:32:19;1020.0726586999472;;;8.880644352392874;0
55014;BME280;40916;51.632;5.552;2023-02-03T03:33:20;1020.1296226223749;;;8.901412449136735;0
55014;BME280;40916;51.632;5.552;2023-02-03T03:34:20;1020.1570825480939;;;8.89449021649627;0
55014;BME280;40916;51.632;5.552;2023-02-03T03:35:20;1020.1479570885845;;;8.901412449136735;0
55014;BME280;40916;51.632;5.552;2023-02-03T03:36:22;1020.0232827767366;;;8.901412449136735;0
55014;BME280;40916;51.632;5.552;2023-02-03T03:37:22;1020.0472267133242;;;8.922176351221744;0
55014;BME280;40916;51.632;5.552;2023-02-03T03:38:20;1020.05462450016;;;8.936016624253913;0
55014;BME280;40916;51.632;5.552;2023-02-03T03:39:21;1020.0196896880536;;;8.91525551634884;0
55014;BME280;40916;51.632;5.552;2023-02-03T03:40:21;1020.1280263147552;;;8.949855036004035;0
55014;BME280;40916;51.632;5.552;2023-02-03T03:41:23;1020.1022976879514;;;8.936016624253913;0
55014;BME280;40916;51.632;5.552;2023-02-03T03:42:22;1020.0912961812999;;;8.936016624253913;0
55014;BME280;40916;51.632;5.552;2023-02-03T03:43:22;1020.0216199972598;;;8.936016624253913;0
55014;BME280;40916;51.632;5.552;2023-02-03T03:44:21;1020.1280773099172;;;8.963691587674571;0
55014;BME280;40916;51.632;5.552;2023-02-03T03:45:21;1020.0143882324681;;;8.963691587674571;0
55014;BME280;40916;51.632;5.552;2023-02-03T03:46:22;1020.0932592773198;;;8.970609166355473;0
55014;BME280;40916;51.632;5.552;2023-02-03T03:47:23;1020.190506415581;;;8.991359115581503;0
55014;BME280;40916;51.632;5.552;2023-02-03T03:48:22;1020.3207557742036;;;9.012104887730807;0
55014;BME280;40916;51.632;5.552;2023-02-03T03:49:21;1020.2363967456329;;;9.012104887730807;0
55014;BME280;40916;51.632;5.552;2023-02-03T03:50:22;1020.3299379785435;;;9.019019217573653;0
55014;BME280;40916;51.632;5.552;2023-02-03T03:51:22;1020.1887349461967;;;9.025933083895808;0
55014;BME280;40916;51.632;5.552;2023-02-03T03:52:22;1020.315286084687;;;9.032846486846836;0
55014;BME280;40916;51.632;5.552;2023-02-03T03:53:24;1020.3996635810374;;;9.046671903233442;0
55014;BME280;40916;51.632;5.552;2023-02-03T03:54:22;1020.3703053642544;;;9.032846486846836;0
55014;BME280;40916;51.632;5.552;2023-02-03T03:55:22;1020.3978232092569;;;9.039759426576232;0
55014;BME280;40916;51.632;5.552;2023-02-03T03:56:23;1020.4766929614212;;;9.046671903233442;0
55014;BME280;40916;51.632;5.552;2023-02-03T03:57:22;1020.421671970101;;;9.046671903233442;0
55014;BME280;40916;51.632;5.552;2023-02-03T03:58:23;1020.4381879798069;;;9.0674065562653;0
55014;BME280;40916;51.632;5.552;2023-02-03T03:59:22;1020.3079664084142;;;9.0604954679287;0
55014;BME280;40916;51.632;5.552;2023-02-03T04:00:22;1020.3189682431384;;;9.074317182126808;0
55014;BME280;40916;51.632;5.552;2023-02-03T04:01:22;1020.4271801597171;;;9.081227345662342;0
55014;BME280;40916;51.632;5.552;2023-02-03T04:02:23;1020.3923107550279;;;9.101955063803263;0
55014;BME280;40916;51.632;5.552;2023-02-03T04:03:23;1020.4803349086471;;;9.115771233664876;0
55014;BME280;40916;51.632;5.552;2023-02-03T04:04:23;1020.4399800925901;;;9.115771233664876;0
55014;BME280;40916;51.632;5.552;2023-02-03T04:05:23;1020.3739449699764;;;9.115771233664876;0
55014;BME280;40916;51.632;5.552;2023-02-03T04:06:23;1020.6013444470485;;;9.143398037385378;0
55014;BME280;40916;51.632;5.552;2023-02-03T04:07:23;1020.617794335022;;;9.164113300852854;0
55014;BME280;40916;51.632;5.552;2023-02-03T04:08:23;1020.5242094952068;;;9.171017467690998;0
55014;BME280;40916;51.632;5.552;2023-02-03T04:09:23;1020.4177477850487;;;9.184824420780185;0
55014;BME280;40916;51.632;5.552;2023-02-03T04:10:24;1020.1756489476113;;;9.171017467690998;0
55014;BME280;40916;51.632;5.552;2023-02-03T04:11:23;1020.3241503292746;;;9.191727207327478;0
55014;BME280;40916;51.632;5.552;2023-02-03T04:12:24;1020.4012040463001;;;9.191727207327478;0
55014;BME280;40916;51.632;5.552;2023-02-03T04:13:24;1020.536899097313;;;9.205531401167605;0
55014;BME280;40916;51.632;5.552;2023-02-03T04:14:24;1020.5405684381471;;;9.205531401167605;0
55014;BME280;40916;51.632;5.552;2023-02-03T04:15:24;1020.6046715715556;;;9.2262342460102;0
55014;BME280;40916;51.632;5.552;2023-02-03T04:16:24;1020.6395700126963;;;9.219333756987915;0
55014;BME280;40916;51.632;5.552;2023-02-03T04:17:24;1020.6487797701517;;;9.212432808756311;0
55014;BME280;40916;51.632;5.552;2023-02-03T04:18:24;1020.6010775847517;;;9.212432808756311;0
55014;BME280;40916;51.632;5.552;2023-02-03T04:19:24;1020.4928670165515;;;9.205531401167605;0